createdAt,value
2022-11-26T00:01:53.493Z,76.55
2022-11-26T00:04:58.874Z,76.74
2022-11-26T00:08:01.456Z,76.69
2022-11-26T00:11:06.911Z,76.59
2022-11-26T00:14:15.725Z,76.77
2022-11-26T00:17:18.798Z,76.74
2022-11-26T00:20:24.181Z,76.43
2022-11-26T00:23:27.782Z,76.44
2022-11-26T00:26:29.723Z,76.24
2022-11-26T00:29:31.332Z,76.28
2022-11-26T00:32:32.860Z,76.21
2022-11-26T00:35:34.584Z,76.23
2022-11-26T00:38:36.214Z,76.31
2022-11-26T00:41:39.043Z,76.38
2022-11-26T00:44:40.830Z,76.19
2022-11-26T00:47:42.691Z,76.25
2022-11-26T00:50:50.197Z,76.22
2022-11-26T00:53:59.789Z,76.14
2022-11-26T00:57:01.416Z,76.09
2022-11-26T01:00:17.294Z,76.08
2022-11-26T01:03:19.148Z,76.20
2022-11-26T01:06:29.760Z,76.24
2022-11-26T01:09:31.575Z,76.00
2022-11-26T01:12:33.100Z,76.17
2022-11-26T01:15:34.756Z,76.14
2022-11-26T01:18:36.405Z,76.16
2022-11-26T01:21:38.536Z,75.86
2022-11-26T01:24:40.358Z,75.97
2022-11-26T01:27:42.196Z,76.12
2022-11-26T01:30:44.573Z,76.04
2022-11-26T01:33:46.087Z,76.02
2022-11-26T01:36:47.690Z,75.98
2022-11-26T01:39:49.252Z,75.94
2022-11-26T01:42:55.294Z,76.11
2022-11-26T01:45:57.163Z,76.02
2022-11-26T01:49:23.768Z,75.96
2022-11-26T01:52:25.810Z,76.05
2022-11-26T01:55:51.154Z,76.03
2022-11-26T01:59:19.802Z,76.04
2022-11-26T02:02:26.748Z,75.70
2022-11-26T02:05:33.803Z,75.81
2022-11-26T02:08:36.008Z,75.76
2022-11-26T02:11:37.998Z,75.79
2022-11-26T02:14:43.087Z,75.51
2022-11-26T02:17:52.134Z,75.55
2022-11-26T02:21:12.157Z,75.41
2022-11-26T02:24:51.004Z,75.22
2022-11-26T02:28:10.994Z,74.82
2022-11-26T02:31:21.438Z,75.04
2022-11-26T02:34:38.209Z,74.84
2022-11-26T02:37:47.701Z,74.99
2022-11-26T02:40:50.245Z,74.82
2022-11-26T02:43:51.951Z,74.95
2022-11-26T02:47:11.063Z,74.79
2022-11-26T02:50:19.176Z,74.86
2022-11-26T02:53:22.985Z,74.94
2022-11-26T02:56:26.980Z,74.85
2022-11-26T02:59:29.589Z,74.87
2022-11-26T03:02:33.427Z,74.86
2022-11-26T03:05:38.439Z,74.70
2022-11-26T03:08:40.413Z,74.55
2022-11-26T03:11:42.547Z,74.51
2022-11-26T03:14:44.175Z,74.40
2022-11-26T03:17:45.875Z,74.76
2022-11-26T03:20:50.068Z,74.56
2022-11-26T03:23:54.486Z,74.73
2022-11-26T03:26:55.962Z,74.52
2022-11-26T03:29:57.613Z,74.47
2022-11-26T03:32:59.207Z,74.74
2022-11-26T03:36:00.845Z,74.61
2022-11-26T03:39:02.913Z,74.55
2022-11-26T03:42:04.608Z,74.42
2022-11-26T03:45:06.585Z,74.50
2022-11-26T03:48:08.283Z,74.22
2022-11-26T03:51:09.864Z,74.03
2022-11-26T03:54:11.468Z,74.31
2022-11-26T03:57:13.110Z,74.21
2022-11-26T04:00:15.039Z,74.23
2022-11-26T04:03:16.805Z,74.10
2022-11-26T04:06:18.519Z,74.16
2022-11-26T04:09:20.162Z,74.26
2022-11-26T04:12:21.932Z,74.03
2022-11-26T04:15:23.526Z,73.84
2022-11-26T04:18:25.126Z,73.88
2022-11-26T04:21:26.683Z,73.75
2022-11-26T04:24:28.226Z,73.99
2022-11-26T04:27:29.828Z,73.45
2022-11-26T04:30:31.518Z,73.69
2022-11-26T04:33:33.087Z,73.70
2022-11-26T04:36:34.687Z,73.84
2022-11-26T04:39:36.217Z,73.85
2022-11-26T04:42:37.850Z,74.25
2022-11-26T04:45:39.566Z,73.92
2022-11-26T04:48:41.242Z,74.22
2022-11-26T04:51:42.879Z,73.99
2022-11-26T04:54:44.667Z,73.80
2022-11-26T04:57:47.904Z,74.13
2022-11-26T05:00:51.232Z,74.06
2022-11-26T05:03:53.150Z,74.04
2022-11-26T05:06:55.279Z,73.90
2022-11-26T05:09:56.826Z,74.02
2022-11-26T05:12:58.421Z,74.23
2022-11-26T05:15:59.990Z,73.97
2022-11-26T05:19:01.669Z,73.97
2022-11-26T05:22:03.287Z,74.00
2022-11-26T05:25:05.273Z,73.93
2022-11-26T05:28:06.860Z,74.14
2022-11-26T05:31:08.469Z,73.92
2022-11-26T05:34:10.039Z,73.99
2022-11-26T05:37:11.615Z,73.96
2022-11-26T05:40:13.442Z,73.93
2022-11-26T05:43:15.057Z,74.05
2022-11-26T05:46:17.537Z,74.33
2022-11-26T05:49:19.139Z,74.52
2022-11-26T05:52:21.075Z,74.50
2022-11-26T05:55:22.683Z,74.40
2022-11-26T05:58:24.698Z,74.47
2022-11-26T06:01:26.310Z,74.52
2022-11-26T06:04:28.485Z,74.34
2022-11-26T06:07:30.357Z,74.52
2022-11-26T06:10:32.157Z,74.48
2022-11-26T06:13:33.712Z,74.67
2022-11-26T06:16:35.706Z,74.73
2022-11-26T06:19:37.689Z,74.41
2022-11-26T06:22:40.914Z,74.59
2022-11-26T06:25:42.538Z,74.57
2022-11-26T06:28:44.142Z,74.77
2022-11-26T06:31:45.834Z,74.59
2022-11-26T06:34:51.187Z,74.54
2022-11-26T06:37:55.470Z,74.50
2022-11-26T06:41:04.847Z,74.46
2022-11-26T06:44:06.589Z,74.67
2022-11-26T06:47:12.098Z,74.90
2022-11-26T06:50:14.873Z,74.80
2022-11-26T06:53:16.509Z,74.72
2022-11-26T06:56:19.189Z,74.85
2022-11-26T06:59:21.484Z,74.73
2022-11-26T07:02:23.316Z,74.83
2022-11-26T07:05:25.098Z,74.71
2022-11-26T07:08:26.801Z,74.76
2022-11-26T07:11:28.529Z,74.87
2022-11-26T07:14:30.120Z,74.79
2022-11-26T07:17:31.724Z,74.83
2022-11-26T07:20:35.240Z,74.97
2022-11-26T07:23:38.080Z,74.83
2022-11-26T07:26:39.770Z,74.88
2022-11-26T07:29:41.409Z,74.91
2022-11-26T07:32:43.064Z,74.90
2022-11-26T07:35:51.072Z,74.98
2022-11-26T07:38:54.152Z,74.95
2022-11-26T07:41:55.931Z,75.05
2022-11-26T07:44:57.653Z,74.91
2022-11-26T07:47:59.229Z,75.10
2022-11-26T07:51:01.642Z,75.15
2022-11-26T07:54:04.501Z,75.00
2022-11-26T07:57:06.142Z,75.35
2022-11-26T08:00:08.345Z,75.38
2022-11-26T08:03:13.458Z,75.43
2022-11-26T08:06:21.167Z,75.49
2022-11-26T08:09:22.853Z,75.75
2022-11-26T08:12:24.589Z,75.72
2022-11-26T08:15:26.319Z,75.92
2022-11-26T08:18:27.853Z,76.05
2022-11-26T08:21:29.629Z,75.95
2022-11-26T08:24:31.250Z,76.21
2022-11-26T08:27:32.908Z,75.96
2022-11-26T08:30:34.525Z,76.39
2022-11-26T08:33:36.528Z,76.49
2022-11-26T08:36:38.163Z,76.38
2022-11-26T08:39:41.508Z,76.67
2022-11-26T08:42:49.244Z,76.58
2022-11-26T08:45:56.397Z,76.57
2022-11-26T08:48:58.141Z,76.60
2022-11-26T08:51:59.651Z,76.46
2022-11-26T08:55:01.292Z,76.51
2022-11-26T08:58:02.858Z,76.46
2022-11-26T09:01:09.678Z,76.52
2022-11-26T09:04:11.416Z,76.60
2022-11-26T09:07:13.286Z,76.74
2022-11-26T09:10:14.972Z,76.69
2022-11-26T09:13:20.877Z,76.76
2022-11-26T09:16:23.961Z,76.63
2022-11-26T09:19:27.351Z,76.77
2022-11-26T09:22:28.924Z,76.63
2022-11-26T09:25:30.509Z,76.54
2022-11-26T09:28:32.095Z,76.72
2022-11-26T09:31:33.802Z,76.66
2022-11-26T09:34:36.517Z,76.64
2022-11-26T09:37:38.421Z,76.83
2022-11-26T09:40:48.913Z,76.65
2022-11-26T09:43:56.787Z,76.95
2022-11-26T09:47:22.136Z,76.90
2022-11-26T09:50:31.546Z,76.76
2022-11-26T09:53:42.421Z,76.83
2022-11-26T09:56:44.123Z,76.84
2022-11-26T09:59:49.900Z,76.82
2022-11-26T10:02:53.786Z,77.08
2022-11-26T10:06:07.868Z,77.07
2022-11-26T10:09:28.045Z,76.92
2022-11-26T10:13:11.256Z,77.00
2022-11-26T10:16:19.997Z,76.96
2022-11-26T10:19:57.929Z,76.97
2022-11-26T10:23:05.689Z,77.04
2022-11-26T10:26:15.369Z,77.04
2022-11-26T10:29:32.996Z,77.18
2022-11-26T10:32:39.426Z,77.26
2022-11-26T10:35:44.229Z,77.36
2022-11-26T10:38:45.933Z,77.23
2022-11-26T10:41:47.790Z,77.10
2022-11-26T10:44:53.777Z,77.29
2022-11-26T10:48:16.389Z,77.26
2022-11-26T10:51:32.471Z,77.34
2022-11-26T10:54:38.961Z,77.37
2022-11-26T10:57:47.264Z,77.28
2022-11-26T11:00:49.113Z,77.51
2022-11-26T11:04:09.530Z,77.45
2022-11-26T11:07:30.793Z,77.46
2022-11-26T11:10:32.685Z,77.32
2022-11-26T11:13:46.414Z,77.45
2022-11-26T11:16:48.507Z,77.62
2022-11-26T11:19:50.506Z,77.51
2022-11-26T11:23:03.025Z,77.54
2022-11-26T11:26:06.781Z,77.67
2022-11-26T11:29:25.569Z,77.64
2022-11-26T11:32:33.903Z,77.70
2022-11-26T11:35:35.708Z,77.66
2022-11-26T11:38:52.262Z,77.68
2022-11-26T11:41:54.239Z,77.69
2022-11-26T11:44:58.515Z,77.71
2022-11-26T11:48:16.709Z,77.85
2022-11-26T11:51:44.015Z,77.83
2022-11-26T11:55:26.621Z,77.62
2022-11-26T11:58:52.723Z,77.89
2022-11-26T12:02:09.435Z,77.93
2022-11-26T12:05:29.728Z,77.81
2022-11-26T12:08:56.415Z,77.72
2022-11-26T12:12:24.280Z,77.94
2022-11-26T12:15:29.255Z,78.17
2022-11-26T12:18:41.109Z,78.14
2022-11-26T12:21:53.810Z,78.20
2022-11-26T12:25:00.677Z,78.26
2022-11-26T12:28:27.581Z,77.97
2022-11-26T12:31:42.714Z,78.06
2022-11-26T12:34:49.325Z,78.16
2022-11-26T12:37:57.481Z,78.09
2022-11-26T12:41:10.406Z,78.26
2022-11-26T12:44:30.848Z,78.25
2022-11-26T12:47:37.558Z,78.16
2022-11-26T12:50:47.137Z,78.40
2022-11-26T12:54:13.382Z,78.38
2022-11-26T12:57:22.610Z,78.27
2022-11-26T13:00:35.526Z,78.48
2022-11-26T13:03:37.794Z,78.47
2022-11-26T13:07:13.767Z,78.45
2022-11-26T13:10:43.353Z,78.32
2022-11-26T13:14:10.070Z,78.38
2022-11-26T13:17:14.275Z,78.46
2022-11-26T13:20:24.963Z,78.53
2022-11-26T13:23:44.832Z,78.48
2022-11-26T13:27:17.029Z,78.46
2022-11-26T13:30:52.998Z,78.62
2022-11-26T13:34:10.430Z,78.65
2022-11-26T13:37:37.457Z,78.57
2022-11-26T13:41:07.088Z,78.54
2022-11-26T13:44:50.637Z,78.77
2022-11-26T13:48:03.194Z,78.71
2022-11-26T13:51:19.060Z,78.57
2022-11-26T13:54:35.589Z,78.74
2022-11-26T13:57:45.103Z,78.72
2022-11-26T14:00:46.934Z,78.57
2022-11-26T14:03:50.089Z,78.56
2022-11-26T14:07:04.005Z,78.59
2022-11-26T14:10:28.137Z,78.62
2022-11-26T14:13:29.980Z,78.49
2022-11-26T14:17:00.686Z,78.66
2022-11-26T14:20:03.862Z,78.46
2022-11-26T14:23:43.554Z,78.52
2022-11-26T14:26:45.180Z,78.32
2022-11-26T14:30:09.408Z,78.53
2022-11-26T14:33:16.933Z,78.41
2022-11-26T14:36:24.792Z,78.60
2022-11-26T14:39:28.247Z,78.51
2022-11-26T14:42:29.910Z,78.43
2022-11-26T14:45:31.688Z,78.43
2022-11-26T14:48:40.130Z,78.52
2022-11-26T14:51:45.326Z,78.42
2022-11-26T14:54:50.861Z,78.55
2022-11-26T14:57:58.040Z,78.50
2022-11-26T15:01:18.786Z,78.36
2022-11-26T15:04:27.919Z,78.40
2022-11-26T15:07:30.915Z,78.50
2022-11-26T15:10:34.209Z,78.56
2022-11-26T15:13:42.263Z,78.35
2022-11-26T15:16:44.591Z,78.42
2022-11-26T15:19:46.710Z,78.49
2022-11-26T15:22:54.440Z,78.31
2022-11-26T15:25:57.583Z,78.38
2022-11-26T15:28:59.456Z,78.39
2022-11-26T15:32:01.743Z,78.39
2022-11-26T15:35:03.844Z,78.41
2022-11-26T15:38:12.627Z,78.47
2022-11-26T15:41:18.636Z,78.24
2022-11-26T15:44:24.431Z,78.25
2022-11-26T15:47:27.678Z,78.34
2022-11-26T15:50:32.754Z,78.37
2022-11-26T15:53:38.542Z,78.27
2022-11-26T15:56:40.142Z,78.20
2022-11-26T15:59:46.141Z,77.99
2022-11-26T16:02:47.863Z,78.16
2022-11-26T16:05:55.569Z,77.91
2022-11-26T16:09:01.919Z,77.98
2022-11-26T16:12:04.195Z,78.09
2022-11-26T16:15:26.270Z,78.17
2022-11-26T16:18:35.828Z,77.99
2022-11-26T16:21:37.527Z,78.11
2022-11-26T16:24:43.481Z,77.71
2022-11-26T16:28:05.068Z,77.97
2022-11-26T16:31:06.686Z,77.97
2022-11-26T16:34:09.603Z,77.90
2022-11-26T16:37:21.928Z,77.68
2022-11-26T16:40:24.960Z,77.69
2022-11-26T16:43:28.018Z,77.84
2022-11-26T16:46:35.328Z,77.80
2022-11-26T16:49:36.879Z,77.68
2022-11-26T16:52:38.592Z,77.68
2022-11-26T16:55:40.297Z,77.79
2022-11-26T16:58:42.234Z,77.63
2022-11-26T17:01:48.689Z,77.54
2022-11-26T17:04:55.471Z,77.66
2022-11-26T17:08:00.534Z,77.66
2022-11-26T17:11:02.175Z,77.76
2022-11-26T17:14:03.716Z,77.68
2022-11-26T17:17:05.357Z,77.78
2022-11-26T17:20:24.962Z,77.47
2022-11-26T17:23:27.533Z,77.65
2022-11-26T17:26:29.260Z,77.61
2022-11-26T17:29:37.117Z,77.54
2022-11-26T17:32:42.928Z,77.58
2022-11-26T17:35:45.756Z,77.43
2022-11-26T17:38:47.994Z,77.38
2022-11-26T17:41:49.598Z,77.29
2022-11-26T17:44:52.913Z,77.54
2022-11-26T17:47:54.763Z,77.33
2022-11-26T17:50:56.396Z,77.38
2022-11-26T17:53:57.987Z,77.10
2022-11-26T17:57:00.714Z,77.20
2022-11-26T18:00:04.194Z,77.01
2022-11-26T18:03:07.095Z,77.06
2022-11-26T18:06:15.918Z,77.20
2022-11-26T18:09:17.560Z,77.15
2022-11-26T18:12:25.459Z,77.07
2022-11-26T18:15:34.794Z,77.15
2022-11-26T18:18:36.389Z,77.18
2022-11-26T18:21:38.824Z,77.16
2022-11-26T18:24:40.453Z,77.02
2022-11-26T18:27:42.103Z,77.04
2022-11-26T18:30:44.202Z,77.06
2022-11-26T18:33:45.820Z,77.08
2022-11-26T18:36:53.369Z,77.09
2022-11-26T18:39:55.481Z,76.85
2022-11-26T18:42:57.122Z,76.96
2022-11-26T18:46:05.871Z,76.69
2022-11-26T18:49:07.513Z,76.96
2022-11-26T18:52:09.414Z,77.00
2022-11-26T18:55:13.325Z,76.82
2022-11-26T18:58:16.846Z,76.87
2022-11-26T19:01:22.337Z,76.70
2022-11-26T19:04:23.947Z,77.00
2022-11-26T19:07:25.584Z,76.85
2022-11-26T19:10:27.326Z,76.65
2022-11-26T19:13:28.889Z,76.65
2022-11-26T19:16:30.471Z,76.50
2022-11-26T19:19:32.525Z,76.65
2022-11-26T19:22:34.431Z,76.63
2022-11-26T19:25:36.400Z,76.39
2022-11-26T19:28:38.784Z,76.67
2022-11-26T19:31:40.503Z,76.53
2022-11-26T19:34:42.223Z,76.64
2022-11-26T19:37:43.862Z,76.44
2022-11-26T19:40:45.543Z,76.48
2022-11-26T19:43:47.145Z,76.59
2022-11-26T19:46:49.311Z,76.41
2022-11-26T19:49:51.050Z,76.29
2022-11-26T19:52:52.722Z,76.35
2022-11-26T19:56:00.427Z,76.37
2022-11-26T19:59:03.103Z,76.22
2022-11-26T20:02:04.804Z,76.24
2022-11-26T20:05:15.625Z,75.86
2022-11-26T20:08:17.719Z,75.81
2022-11-26T20:11:19.571Z,75.90
2022-11-26T20:14:21.243Z,76.09
2022-11-26T20:17:22.899Z,75.91
2022-11-26T20:20:24.541Z,75.99
2022-11-26T20:23:27.161Z,75.85
2022-11-26T20:26:31.770Z,75.73
2022-11-26T20:29:33.507Z,75.83
2022-11-26T20:32:36.288Z,75.79
2022-11-26T20:35:42.106Z,75.64
2022-11-26T20:38:43.751Z,75.78
2022-11-26T20:41:46.098Z,75.91
2022-11-26T20:44:47.718Z,75.61
2022-11-26T20:47:49.322Z,75.70
2022-11-26T20:50:50.927Z,75.45
2022-11-26T20:53:53.091Z,75.66
2022-11-26T20:56:54.753Z,75.47
2022-11-26T20:59:56.347Z,75.39
2022-11-26T21:03:00.132Z,75.14
2022-11-26T21:06:02.650Z,75.51
2022-11-26T21:09:08.006Z,75.35
2022-11-26T21:12:09.593Z,75.08
2022-11-26T21:15:11.324Z,75.07
2022-11-26T21:18:13.430Z,75.25
2022-11-26T21:21:16.564Z,75.09
2022-11-26T21:24:19.730Z,75.23
2022-11-26T21:27:22.682Z,75.07
2022-11-26T21:30:24.555Z,75.15
2022-11-26T21:33:26.452Z,75.31
2022-11-26T21:36:30.148Z,75.09
2022-11-26T21:39:31.939Z,74.94
2022-11-26T21:42:33.632Z,74.86
2022-11-26T21:45:35.519Z,74.94
2022-11-26T21:48:37.165Z,74.69
2022-11-26T21:51:41.526Z,74.84
2022-11-26T21:54:43.308Z,75.03
2022-11-26T21:57:45.060Z,74.91
2022-11-26T22:00:46.790Z,74.81
2022-11-26T22:03:50.929Z,74.86
2022-11-26T22:06:54.264Z,74.86
2022-11-26T22:09:56.307Z,74.85
2022-11-26T22:12:57.964Z,74.78
2022-11-26T22:15:59.623Z,74.95
2022-11-26T22:19:02.817Z,74.78
2022-11-26T22:22:07.679Z,74.82
2022-11-26T22:25:09.252Z,74.85
2022-11-26T22:28:12.437Z,74.92
2022-11-26T22:31:16.272Z,75.03
2022-11-26T22:34:21.351Z,75.22
2022-11-26T22:37:22.871Z,74.85
2022-11-26T22:40:24.589Z,74.95
2022-11-26T22:43:26.159Z,75.04
2022-11-26T22:46:28.295Z,74.74
2022-11-26T22:49:29.941Z,75.01
2022-11-26T22:52:31.603Z,75.00
2022-11-26T22:55:33.171Z,74.97
2022-11-26T22:58:35.249Z,74.91
2022-11-26T23:01:37.119Z,74.86
2022-11-26T23:04:38.789Z,74.93
2022-11-26T23:07:40.456Z,75.06
2022-11-26T23:10:42.677Z,75.03
2022-11-26T23:13:45.591Z,74.85
2022-11-26T23:16:47.243Z,74.98
2022-11-26T23:19:48.865Z,74.74
2022-11-26T23:22:50.506Z,74.89
2022-11-26T23:25:52.073Z,74.82
2022-11-26T23:28:57.700Z,74.81
2022-11-26T23:31:59.307Z,74.92
2022-11-26T23:35:01.350Z,74.74
2022-11-26T23:38:02.956Z,74.81
2022-11-26T23:41:05.743Z,75.03
2022-11-26T23:44:07.365Z,74.87
2022-11-26T23:47:09.339Z,75.04
2022-11-26T23:50:11.342Z,74.77
2022-11-26T23:53:12.950Z,74.70
2022-11-26T23:56:19.506Z,74.87
2022-11-26T23:59:21.079Z,74.68
